08MA weather

Wormid Airport
Southborough, Massachusetts, United States

Public forecast

Using degrees Fahrenheit for public forecast. Weather courtesy of forecast.io.

METAR (pilot weather report)

Closest report is Laurence G Hanscom Field, 14.0 nm (25.9 km) NE. Retrieved 2019/09/16 12:51 UTC (16 minutes ago):

KBED 161251Z 33006KT 10SM CLR 18/09 A3007 RMK AO2 SLP195 T01830094

TAF (pilot weather forecast)

Closest forecast is Laurence G Hanscom Field, 14.0 nm (25.9 km) NE. Retrieved 2019/09/16 12:51 UTC (16 minutes ago):

TAF KBED 161147Z 1612/1712 31005KT P6SM SCT250 FM162300 33005KT P6SM FEW250